createdAt,value
2018-08-22T00:00:48.562Z,10.64
2018-08-22T00:01:48.544Z,10.66
2018-08-22T00:02:48.514Z,10.74
2018-08-22T00:03:48.490Z,10.60
2018-08-22T00:04:48.473Z,10.67
2018-08-22T00:05:48.443Z,10.67
2018-08-22T00:06:48.419Z,10.64
2018-08-22T00:07:48.396Z,10.70
2018-08-22T00:08:48.421Z,10.73
2018-08-22T00:09:48.351Z,10.64
2018-08-22T00:10:48.322Z,10.66
2018-08-22T00:11:48.298Z,10.64
2018-08-22T00:12:48.275Z,10.61
2018-08-22T00:13:48.252Z,10.53
2018-08-22T00:14:48.226Z,10.51
2018-08-22T00:15:48.207Z,10.52
2018-08-22T00:16:48.179Z,10.52
2018-08-22T00:17:48.156Z,10.52
2018-08-22T00:18:48.130Z,10.56
2018-08-22T00:19:48.106Z,10.51
2018-08-22T00:20:48.084Z,10.48
2018-08-22T00:21:48.059Z,10.45
2018-08-22T00:22:48.036Z,10.48
2018-08-22T00:23:48.011Z,10.48
2018-08-22T00:24:47.986Z,10.33
2018-08-22T00:25:47.962Z,10.34
2018-08-22T00:26:47.941Z,10.38
2018-08-22T00:27:47.915Z,10.34
2018-08-22T00:28:47.890Z,10.38
2018-08-22T00:29:47.867Z,10.27
2018-08-22T00:30:47.841Z,10.32
2018-08-22T00:31:47.817Z,10.15
2018-08-22T00:32:47.794Z,10.12
2018-08-22T00:33:47.768Z,10.25
2018-08-22T00:34:47.748Z,10.26
2018-08-22T00:35:47.721Z,10.29
2018-08-22T00:36:47.697Z,10.26
2018-08-22T00:37:47.673Z,10.26
2018-08-22T00:38:47.647Z,10.27
2018-08-22T00:39:47.623Z,10.25
2018-08-22T00:40:47.600Z,10.18
2018-08-22T00:41:47.577Z,10.27
2018-08-22T00:42:47.552Z,10.18
2018-08-22T00:43:47.527Z,10.27
2018-08-22T00:44:47.507Z,10.26
2018-08-22T00:45:47.479Z,10.23
2018-08-22T00:46:47.454Z,10.30
2018-08-22T00:47:47.431Z,10.26
2018-08-22T00:48:47.406Z,10.26
2018-08-22T00:49:47.383Z,10.27
2018-08-22T00:50:47.359Z,10.26
2018-08-22T00:51:47.333Z,10.29
2018-08-22T00:52:47.309Z,10.14
2018-08-22T00:53:47.284Z,10.27
2018-08-22T00:54:47.261Z,10.15
2018-08-22T00:55:47.236Z,10.23
2018-08-22T00:56:47.212Z,10.22
2018-08-22T00:57:47.197Z,10.30
2018-08-22T00:58:47.163Z,10.23
2018-08-22T00:59:47.139Z,10.18
2018-08-22T01:00:47.115Z,10.12
2018-08-22T01:01:47.091Z,10.08
2018-08-22T01:02:47.066Z,10.09
2018-08-22T01:03:47.042Z,10.07
2018-08-22T01:04:47.018Z,10.07
2018-08-22T01:05:46.993Z,9.96
2018-08-22T01:06:46.968Z,9.99
2018-08-22T01:07:46.945Z,9.94
2018-08-22T01:08:46.920Z,9.97
2018-08-22T01:09:46.896Z,9.99
2018-08-22T01:10:46.870Z,10.07
2018-08-22T01:11:46.847Z,10.01
2018-08-22T01:12:46.823Z,9.97
2018-08-22T01:13:46.798Z,10.01
2018-08-22T01:14:46.773Z,10.02
2018-08-22T01:15:46.749Z,10.01
2018-08-22T01:16:46.726Z,9.83
2018-08-22T01:17:46.701Z,9.86
2018-08-22T01:18:46.682Z,9.81
2018-08-22T01:19:46.650Z,9.83
2018-08-22T01:20:46.626Z,9.78
2018-08-22T01:21:46.602Z,9.78
2018-08-22T01:22:46.577Z,9.72
2018-08-22T01:23:46.554Z,9.79
2018-08-22T01:24:46.529Z,9.76
2018-08-22T01:25:46.504Z,9.74
2018-08-22T01:26:46.479Z,9.75
2018-08-22T01:27:46.454Z,9.72
2018-08-22T01:28:46.431Z,9.76
2018-08-22T01:29:46.407Z,9.78
2018-08-22T01:30:46.381Z,9.84
2018-08-22T01:31:46.356Z,9.78
2018-08-22T01:32:46.333Z,9.81
2018-08-22T01:33:46.309Z,9.86
2018-08-22T01:34:46.282Z,9.87
2018-08-22T01:35:46.257Z,9.81
2018-08-22T01:36:46.236Z,9.69
2018-08-22T01:37:46.209Z,9.76
2018-08-22T01:38:46.184Z,9.71
2018-08-22T01:39:46.159Z,9.65
2018-08-22T01:40:46.140Z,9.57
2018-08-22T01:41:46.110Z,9.61
2018-08-22T01:42:46.087Z,9.53
2018-08-22T01:43:46.062Z,9.54
2018-08-22T01:44:46.036Z,9.54
2018-08-22T01:45:46.012Z,9.51
2018-08-22T01:46:45.986Z,9.50
2018-08-22T01:47:45.964Z,9.46
2018-08-22T01:48:45.938Z,9.50
2018-08-22T01:49:45.913Z,9.39
2018-08-22T01:50:45.888Z,9.35
2018-08-22T01:51:45.864Z,9.35
2018-08-22T01:52:45.839Z,9.48
2018-08-22T01:53:45.814Z,9.47
2018-08-22T01:54:45.789Z,9.48
2018-08-22T01:55:45.766Z,9.46
2018-08-22T01:56:45.740Z,9.47
2018-08-22T01:57:45.715Z,9.31
2018-08-22T01:58:45.705Z,9.31
2018-08-22T01:59:45.665Z,9.28
2018-08-22T02:00:45.645Z,9.31
2018-08-22T02:01:45.616Z,9.32
2018-08-22T02:02:45.592Z,9.26
2018-08-22T02:03:45.570Z,9.38
2018-08-22T02:04:45.545Z,9.32
2018-08-22T02:05:45.517Z,9.13
2018-08-22T02:06:45.493Z,9.18
2018-08-22T02:07:45.468Z,9.18
2018-08-22T02:08:45.443Z,9.15
2018-08-22T02:09:45.418Z,9.28
2018-08-22T02:10:45.394Z,9.29
2018-08-22T02:11:45.368Z,9.31
2018-08-22T02:12:45.344Z,9.28
2018-08-22T02:13:45.321Z,9.38
2018-08-22T02:14:45.295Z,9.33
2018-08-22T02:15:45.269Z,9.42
2018-08-22T02:16:45.249Z,9.46
2018-08-22T02:17:45.220Z,9.47
2018-08-22T02:18:45.195Z,9.39
2018-08-22T02:19:45.169Z,9.32
2018-08-22T02:20:45.145Z,9.31
2018-08-22T02:21:45.120Z,9.29
2018-08-22T02:22:45.094Z,9.32
2018-08-22T02:23:45.070Z,9.24
2018-08-22T02:24:45.048Z,9.26
2018-08-22T02:25:45.025Z,9.26
2018-08-22T02:26:44.995Z,9.23
2018-08-22T02:27:44.972Z,9.14
2018-08-22T02:28:44.947Z,9.17
2018-08-22T02:29:44.922Z,9.20
2018-08-22T02:30:44.897Z,9.20
2018-08-22T02:31:44.872Z,9.31
2018-08-22T02:32:44.849Z,9.32
2018-08-22T02:33:44.823Z,9.42
2018-08-22T02:34:44.797Z,9.47
2018-08-22T02:35:44.773Z,9.47
2018-08-22T02:36:44.748Z,9.50
2018-08-22T02:37:44.725Z,9.47
2018-08-22T02:38:44.697Z,9.48
2018-08-22T02:39:44.672Z,9.47
2018-08-22T02:40:44.649Z,9.47
2018-08-22T02:41:44.622Z,9.36
2018-08-22T02:42:44.597Z,9.39
2018-08-22T02:43:44.571Z,9.36
2018-08-22T02:44:44.547Z,9.33
2018-08-22T02:45:44.521Z,9.33
2018-08-22T02:46:44.499Z,9.33
2018-08-22T02:47:44.472Z,9.21
2018-08-22T02:48:44.447Z,9.23
2018-08-22T02:49:44.422Z,9.17
2018-08-22T02:50:44.396Z,9.10
2018-08-22T02:51:44.372Z,9.10
2018-08-22T02:52:44.346Z,9.08
2018-08-22T02:53:44.323Z,8.98
2018-08-22T02:54:44.296Z,9.05
2018-08-22T02:55:44.271Z,9.08
2018-08-22T02:56:44.247Z,9.04
2018-08-22T02:57:44.222Z,9.04
2018-08-22T02:58:44.194Z,8.96
2018-08-22T02:59:44.171Z,9.01
2018-08-22T03:00:44.145Z,8.89
2018-08-22T03:01:44.121Z,8.95
2018-08-22T03:02:44.095Z,8.89
2018-08-22T03:03:44.069Z,8.87
2018-08-22T03:04:44.044Z,8.84
2018-08-22T03:05:44.020Z,8.89
2018-08-22T03:06:43.993Z,8.92
2018-08-22T03:07:43.969Z,9.01
2018-08-22T03:08:43.948Z,8.94
2018-08-22T03:09:43.919Z,9.01
2018-08-22T03:10:43.894Z,8.91
2018-08-22T03:11:43.869Z,8.98
2018-08-22T03:12:43.843Z,8.92
2018-08-22T03:13:43.821Z,8.91
2018-08-22T03:14:43.793Z,8.95
2018-08-22T03:15:43.769Z,9.02
2018-08-22T03:16:43.742Z,9.02
2018-08-22T03:17:43.717Z,9.04
2018-08-22T03:18:43.693Z,9.18
2018-08-22T03:19:43.671Z,9.14
2018-08-22T03:20:43.642Z,9.11
2018-08-22T03:21:43.618Z,9.02
2018-08-22T03:22:43.591Z,8.91
2018-08-22T03:23:43.570Z,8.92
2018-08-22T03:24:43.542Z,8.98
2018-08-22T03:25:43.515Z,8.83
2018-08-22T03:26:43.491Z,8.86
2018-08-22T03:27:43.465Z,8.76
2018-08-22T03:28:43.441Z,8.80
2018-08-22T03:29:43.415Z,8.74
2018-08-22T03:30:43.391Z,8.77
2018-08-22T03:31:43.366Z,8.79
2018-08-22T03:32:43.340Z,8.81
2018-08-22T03:33:43.315Z,8.76
2018-08-22T03:34:43.289Z,8.76
2018-08-22T03:35:43.263Z,8.77
2018-08-22T03:36:43.240Z,8.79
2018-08-22T03:37:43.213Z,8.70
2018-08-22T03:38:43.187Z,8.76
2018-08-22T03:39:43.164Z,8.79
2018-08-22T03:40:43.137Z,8.81
2018-08-22T03:41:43.113Z,8.83
2018-08-22T03:42:43.085Z,8.74
2018-08-22T03:43:43.062Z,8.83
2018-08-22T03:44:43.037Z,8.83
2018-08-22T03:45:43.012Z,8.76
2018-08-22T03:46:42.986Z,8.89
2018-08-22T03:47:42.960Z,8.89
2018-08-22T03:48:42.936Z,8.81
2018-08-22T03:49:42.911Z,8.92
2018-08-22T03:50:42.884Z,8.92
2018-08-22T03:51:42.858Z,8.84
2018-08-22T03:52:42.834Z,8.89
2018-08-22T03:53:42.809Z,9.02
2018-08-22T03:54:42.783Z,8.98
2018-08-22T03:55:42.757Z,9.05
2018-08-22T03:56:42.734Z,9.01
2018-08-22T03:57:42.708Z,8.96
2018-08-22T03:58:42.682Z,9.05
2018-08-22T03:59:42.655Z,8.94
2018-08-22T04:00:42.629Z,8.89
2018-08-22T04:01:42.608Z,8.92
2018-08-22T04:02:42.580Z,8.99
2018-08-22T04:03:42.555Z,8.89
2018-08-22T04:04:42.528Z,8.96
2018-08-22T04:05:42.505Z,8.94
2018-08-22T04:06:42.477Z,8.91
2018-08-22T04:07:42.452Z,9.02
2018-08-22T04:08:42.427Z,9.05
2018-08-22T04:09:42.402Z,9.08
2018-08-22T04:10:42.376Z,9.10
2018-08-22T04:11:42.351Z,8.92
2018-08-22T04:12:42.326Z,8.92
2018-08-22T04:13:42.301Z,8.77
2018-08-22T04:14:42.277Z,8.77
2018-08-22T04:15:42.249Z,8.74
2018-08-22T04:16:42.223Z,8.77
2018-08-22T04:17:42.200Z,8.80
2018-08-22T04:18:42.173Z,8.80
2018-08-22T04:19:42.147Z,8.89
2018-08-22T04:20:42.121Z,8.91
2018-08-22T04:21:42.099Z,8.81
2018-08-22T04:22:42.070Z,8.80
2018-08-22T04:23:42.046Z,8.77
2018-08-22T04:24:42.021Z,8.95
2018-08-22T04:25:41.996Z,8.95
2018-08-22T04:26:41.970Z,8.98
2018-08-22T04:27:41.944Z,8.83
2018-08-22T04:28:41.918Z,8.81
2018-08-22T04:29:41.894Z,8.91
2018-08-22T04:30:41.868Z,8.94
2018-08-22T04:31:41.842Z,8.96
2018-08-22T04:32:41.825Z,8.96
2018-08-22T04:33:41.793Z,9.08
2018-08-22T04:34:41.767Z,9.10
2018-08-22T04:35:41.741Z,9.10
2018-08-22T04:36:41.717Z,9.04
2018-08-22T04:37:41.693Z,9.10
2018-08-22T04:38:41.666Z,9.13
2018-08-22T04:39:41.640Z,9.20
2018-08-22T04:40:41.616Z,9.17
2018-08-22T04:41:41.589Z,9.14
2018-08-22T04:42:41.562Z,9.18
2018-08-22T04:43:41.537Z,9.15
2018-08-22T04:44:41.513Z,9.18
2018-08-22T04:45:41.489Z,9.21
2018-08-22T04:46:41.462Z,9.20
2018-08-22T04:47:41.439Z,9.23
2018-08-22T04:48:41.412Z,9.23
2018-08-22T04:49:41.387Z,9.24
2018-08-22T04:50:41.360Z,9.33
2018-08-22T04:51:41.337Z,9.42
2018-08-22T04:52:41.311Z,9.47
2018-08-22T04:53:41.285Z,9.46
2018-08-22T04:54:41.259Z,9.48
2018-08-22T04:55:41.237Z,9.48
2018-08-22T04:56:41.211Z,9.50
2018-08-22T04:57:41.185Z,9.54
2018-08-22T04:58:41.160Z,9.53
2018-08-22T04:59:41.134Z,9.56
2018-08-22T05:00:41.110Z,9.54
2018-08-22T05:01:41.095Z,9.71
2018-08-22T05:02:41.061Z,9.74
2018-08-22T05:03:41.038Z,9.76
2018-08-22T05:04:41.009Z,9.79
2018-08-22T05:05:40.985Z,9.83
2018-08-22T05:06:40.958Z,9.83
2018-08-22T05:07:40.945Z,9.91
2018-08-22T05:08:40.911Z,10.01
2018-08-22T05:09:40.885Z,10.07
2018-08-22T05:10:40.859Z,10.11
2018-08-22T05:11:40.836Z,10.17
2018-08-22T05:12:40.811Z,10.15
2018-08-22T05:13:40.785Z,10.26
2018-08-22T05:14:40.759Z,10.34
2018-08-22T05:15:40.735Z,10.38
2018-08-22T05:16:40.713Z,10.40
2018-08-22T05:17:40.686Z,10.52
2018-08-22T05:18:40.661Z,10.61
2018-08-22T05:19:40.639Z,10.60
2018-08-22T05:20:40.612Z,10.70
2018-08-22T05:21:40.587Z,10.88
2018-08-22T05:22:40.563Z,11.07
2018-08-22T05:23:40.537Z,11.39
2018-08-22T05:24:40.526Z,11.90
2018-08-22T05:25:40.490Z,12.86
2018-08-22T05:26:40.463Z,13.92
2018-08-22T05:27:40.440Z,14.88
2018-08-22T05:28:40.417Z,15.75
2018-08-22T05:29:40.393Z,16.57
2018-08-22T05:30:40.370Z,17.31
2018-08-22T05:31:40.347Z,17.99
2018-08-22T05:32:40.324Z,18.58
2018-08-22T05:33:40.301Z,19.08
2018-08-22T05:34:40.280Z,19.54
2018-08-22T05:35:40.258Z,19.98
2018-08-22T05:36:40.237Z,20.11
2018-08-22T05:37:40.219Z,20.14
2018-08-22T05:38:40.194Z,20.23
2018-08-22T05:39:40.173Z,20.51
2018-08-22T05:40:40.198Z,20.36
2018-08-22T05:41:40.135Z,20.66
2018-08-22T05:42:40.111Z,20.92
2018-08-22T05:43:40.092Z,21.22
2018-08-22T05:44:40.073Z,21.28
2018-08-22T05:45:40.053Z,21.43
2018-08-22T05:46:40.033Z,21.65
2018-08-22T05:47:40.015Z,21.49
2018-08-22T05:48:39.995Z,21.59
2018-08-22T05:49:39.977Z,21.50
2018-08-22T05:50:39.959Z,21.52
2018-08-22T05:51:39.940Z,21.53
2018-08-22T05:52:39.921Z,21.58
2018-08-22T05:53:39.904Z,21.03
2018-08-22T05:54:39.884Z,21.52
2018-08-22T05:55:39.867Z,21.82
2018-08-22T05:56:39.849Z,22.17
2018-08-22T05:57:39.902Z,22.33
2018-08-22T05:58:39.815Z,22.24
2018-08-22T05:59:39.795Z,22.43
2018-08-22T06:00:39.778Z,22.36
2018-08-22T06:01:39.761Z,22.76
2018-08-22T06:02:39.745Z,22.95
2018-08-22T06:03:39.728Z,23.20
2018-08-22T06:04:39.711Z,23.12
2018-08-22T06:05:39.694Z,23.57
2018-08-22T06:06:39.677Z,23.63
2018-08-22T06:07:39.660Z,23.83
2018-08-22T06:08:39.645Z,23.76
2018-08-22T06:09:39.629Z,23.79
2018-08-22T06:10:39.610Z,23.78
2018-08-22T06:11:39.595Z,24.08
2018-08-22T06:12:39.581Z,23.84
2018-08-22T06:13:39.564Z,24.28
2018-08-22T06:14:39.548Z,24.16
2018-08-22T06:15:39.564Z,24.55
2018-08-22T06:16:39.515Z,24.73
2018-08-22T06:17:39.500Z,24.32
2018-08-22T06:18:39.484Z,24.40
2018-08-22T06:19:39.470Z,24.49
2018-08-22T06:20:39.453Z,24.02
2018-08-22T06:21:39.437Z,24.21
2018-08-22T06:22:39.423Z,24.31
2018-08-22T06:23:39.407Z,24.45
2018-08-22T06:24:39.393Z,24.43
2018-08-22T06:25:39.412Z,24.71
2018-08-22T06:26:39.362Z,25.18
2018-08-22T06:27:39.347Z,25.50
2018-08-22T06:28:39.332Z,25.05
2018-08-22T06:29:39.319Z,25.02
2018-08-22T06:30:39.301Z,25.00
2018-08-22T06:31:39.287Z,24.08
2018-08-22T06:32:39.272Z,24.27
2018-08-22T06:33:39.259Z,24.85
2018-08-22T06:34:39.245Z,25.05
2018-08-22T06:35:39.231Z,24.67
2018-08-22T06:36:39.215Z,24.43
2018-08-22T06:37:39.346Z,24.47
2018-08-22T06:38:39.185Z,24.67
2018-08-22T06:39:39.171Z,24.37
2018-08-22T06:40:39.156Z,24.00
2018-08-22T06:41:39.142Z,24.00
2018-08-22T06:42:39.126Z,24.00
2018-08-22T06:43:39.112Z,23.65
2018-08-22T06:44:39.098Z,23.79
2018-08-22T06:45:39.083Z,24.02
2018-08-22T06:46:39.067Z,24.43
2018-08-22T06:47:39.054Z,24.35
2018-08-22T06:48:39.039Z,24.65
2018-08-22T06:49:39.024Z,25.14
2018-08-22T06:50:39.015Z,25.50
2018-08-22T06:51:38.994Z,25.46
2018-08-22T06:52:38.982Z,24.96
2018-08-22T06:53:38.966Z,25.76
2018-08-22T06:54:38.955Z,25.87
2018-08-22T06:55:38.941Z,25.99
2018-08-22T06:56:38.924Z,26.54
2018-08-22T06:57:38.910Z,26.95
2018-08-22T06:58:38.894Z,26.44
2018-08-22T06:59:38.882Z,26.30
2018-08-22T07:00:38.867Z,25.99
2018-08-22T07:01:38.855Z,26.33
2018-08-22T07:02:38.841Z,26.70
2018-08-22T07:03:38.827Z,26.47
2018-08-22T07:04:38.813Z,26.45
2018-08-22T07:05:38.801Z,25.85
2018-08-22T07:06:38.786Z,25.73
2018-08-22T07:07:38.773Z,25.99
2018-08-22T07:08:38.758Z,26.43
2018-08-22T07:09:38.745Z,26.60
2018-08-22T07:10:38.733Z,26.37
2018-08-22T07:11:38.718Z,26.67
2018-08-22T07:12:38.706Z,27.24
2018-08-22T07:13:38.692Z,27.43
2018-08-22T07:14:38.680Z,27.60
2018-08-22T07:15:38.667Z,27.90
2018-08-22T07:16:38.654Z,27.47
2018-08-22T07:17:38.639Z,27.32
2018-08-22T07:18:38.627Z,27.60
2018-08-22T07:19:38.615Z,27.65
2018-08-22T07:20:38.602Z,27.96
2018-08-22T07:21:38.591Z,28.40
2018-08-22T07:22:38.576Z,28.78
2018-08-22T07:23:38.564Z,29.04
2018-08-22T07:24:38.550Z,28.95
2018-08-22T07:25:38.540Z,29.21
2018-08-22T07:26:38.526Z,29.26
2018-08-22T07:27:38.512Z,29.05
2018-08-22T07:28:38.499Z,28.71
2018-08-22T07:29:38.488Z,29.21
2018-08-22T07:30:38.476Z,29.37
2018-08-22T07:31:38.465Z,29.30
2018-08-22T07:32:38.452Z,29.41
2018-08-22T07:33:38.440Z,28.93
2018-08-22T07:34:38.427Z,29.30
2018-08-22T07:35:38.443Z,29.55
2018-08-22T07:36:38.403Z,29.42
2018-08-22T07:37:38.391Z,29.27
2018-08-22T07:38:38.379Z,29.00
2018-08-22T07:39:38.369Z,28.88
2018-08-22T07:40:38.356Z,28.93
2018-08-22T07:41:38.343Z,28.73
2018-08-22T07:42:38.332Z,28.78
2018-08-22T07:43:38.319Z,28.96
2018-08-22T07:44:38.308Z,29.37
2018-08-22T07:45:38.296Z,29.57
2018-08-22T07:46:38.284Z,28.98
2018-08-22T07:47:38.276Z,29.08
2018-08-22T07:48:38.260Z,29.46
2018-08-22T07:49:38.247Z,30.01
2018-08-22T07:50:38.236Z,30.26
2018-08-22T07:51:38.224Z,30.89
2018-08-22T07:52:38.214Z,30.55
2018-08-22T07:53:38.201Z,30.67
2018-08-22T07:54:38.190Z,30.43
2018-08-22T07:55:38.184Z,29.58
2018-08-22T07:56:38.166Z,30.01
2018-08-22T07:57:38.155Z,30.31
2018-08-22T07:58:38.144Z,30.46
2018-08-22T07:59:38.134Z,30.34
2018-08-22T08:00:38.123Z,30.69
2018-08-22T08:01:38.114Z,30.89
2018-08-22T08:02:38.102Z,31.21
2018-08-22T08:03:38.089Z,31.02
2018-08-22T08:04:38.079Z,30.57
2018-08-22T08:05:38.165Z,30.88
2018-08-22T08:06:38.055Z,30.67
2018-08-22T08:07:38.044Z,30.43
2018-08-22T08:08:38.077Z,30.04
2018-08-22T08:09:38.023Z,30.37
2018-08-22T08:10:38.009Z,30.37
2018-08-22T08:11:37.998Z,30.45
2018-08-22T08:12:37.988Z,30.99
2018-08-22T08:13:37.978Z,30.67
2018-08-22T08:14:37.965Z,29.80
2018-08-22T08:15:37.956Z,30.11
2018-08-22T08:16:37.945Z,30.45
2018-08-22T08:17:37.960Z,30.67
2018-08-22T08:18:37.923Z,30.77
2018-08-22T08:19:37.972Z,30.65
2018-08-22T08:20:37.902Z,30.35
2018-08-22T08:21:37.893Z,30.42
2018-08-22T08:22:37.879Z,30.39
2018-08-22T08:23:37.868Z,30.13
2018-08-22T08:24:37.857Z,30.32
2018-08-22T08:25:37.852Z,30.46
2018-08-22T08:26:37.835Z,30.45
2018-08-22T08:27:37.823Z,30.79
2018-08-22T08:28:37.813Z,30.89
2018-08-22T08:29:37.802Z,30.88
2018-08-22T08:30:37.895Z,31.14
2018-08-22T08:31:37.782Z,31.16
2018-08-22T08:32:37.770Z,30.89
2018-08-22T08:33:37.759Z,31.10
2018-08-22T08:34:37.746Z,31.43
2018-08-22T08:35:37.746Z,31.48
2018-08-22T08:36:37.728Z,31.86
2018-08-22T08:37:37.714Z,31.93
2018-08-22T08:38:37.744Z,31.13
2018-08-22T08:39:37.695Z,31.14
2018-08-22T08:40:37.683Z,31.51
2018-08-22T08:41:37.773Z,31.88
2018-08-22T08:42:37.661Z,31.50
2018-08-22T08:43:37.651Z,31.72
2018-08-22T08:44:37.641Z,31.43
2018-08-22T08:45:37.631Z,31.41
2018-08-22T08:46:37.619Z,31.61
2018-08-22T08:47:37.607Z,31.66
2018-08-22T08:48:37.608Z,30.92
2018-08-22T08:49:37.626Z,30.37
2018-08-22T08:50:37.576Z,30.45
2018-08-22T08:51:37.565Z,30.57
2018-08-22T08:52:37.555Z,30.82
2018-08-22T08:53:37.560Z,30.35
2018-08-22T08:54:37.533Z,30.82
2018-08-22T08:55:37.522Z,30.69
2018-08-22T08:56:37.512Z,30.94
2018-08-22T08:57:37.502Z,30.98
2018-08-22T08:58:37.491Z,31.34
2018-08-22T08:59:37.480Z,31.34
2018-08-22T09:00:37.470Z,31.26
2018-08-22T09:01:37.460Z,31.29
2018-08-22T09:02:37.449Z,30.83
2018-08-22T09:03:37.437Z,30.92
2018-08-22T09:04:37.442Z,30.49
2018-08-22T09:05:37.418Z,29.78
2018-08-22T09:06:37.456Z,30.00
2018-08-22T09:07:37.396Z,30.58
2018-08-22T09:08:37.383Z,30.84
2018-08-22T09:09:37.374Z,30.67
2018-08-22T09:10:37.421Z,30.43
2018-08-22T09:11:37.351Z,30.54
2018-08-22T09:12:37.342Z,31.23
2018-08-22T09:13:37.330Z,31.29
2018-08-22T09:14:37.322Z,31.23
2018-08-22T09:15:37.335Z,31.16
2018-08-22T09:16:37.299Z,30.72
2018-08-22T09:17:37.309Z,30.53
2018-08-22T09:18:37.276Z,30.84
2018-08-22T09:19:37.293Z,30.89
2018-08-22T09:20:37.256Z,30.72
2018-08-22T09:21:37.311Z,30.98
2018-08-22T09:22:37.234Z,30.92
2018-08-22T09:23:37.224Z,30.77
2018-08-22T09:24:37.214Z,31.14
2018-08-22T09:25:37.201Z,31.28
2018-08-22T09:26:37.191Z,31.41
2018-08-22T09:27:37.180Z,31.54
2018-08-22T09:28:37.170Z,31.69
2018-08-22T09:29:37.167Z,31.81
2018-08-22T09:30:37.149Z,32.03
2018-08-22T09:31:37.137Z,31.84
2018-08-22T09:32:37.128Z,31.68
2018-08-22T09:33:37.122Z,31.72
2018-08-22T09:34:37.107Z,31.86
2018-08-22T09:35:37.209Z,32.19
2018-08-22T09:36:37.089Z,32.22
2018-08-22T09:37:37.078Z,31.54
2018-08-22T09:38:37.065Z,30.89
2018-08-22T09:39:37.067Z,31.10
2018-08-22T09:40:37.047Z,31.09
2018-08-22T09:41:37.038Z,31.57
2018-08-22T09:42:37.028Z,31.92
2018-08-22T09:43:37.015Z,31.89
2018-08-22T09:44:37.008Z,31.50
2018-08-22T09:45:37.003Z,31.80
2018-08-22T09:46:37.055Z,31.91
2018-08-22T09:47:36.977Z,31.54
2018-08-22T09:48:36.967Z,31.56
2018-08-22T09:49:36.959Z,31.14
2018-08-22T09:50:36.946Z,31.43
2018-08-22T09:51:36.935Z,31.92
2018-08-22T09:52:36.925Z,31.58
2018-08-22T09:53:36.914Z,31.43
2018-08-22T09:54:36.920Z,31.99
2018-08-22T09:55:36.894Z,32.26
2018-08-22T09:56:36.884Z,32.04
2018-08-22T09:57:36.875Z,31.43
2018-08-22T09:58:36.866Z,31.14
2018-08-22T09:59:36.854Z,31.25
2018-08-22T10:00:36.899Z,31.88
2018-08-22T10:01:36.834Z,31.91
2018-08-22T10:02:36.824Z,31.96
2018-08-22T10:03:36.813Z,31.99
2018-08-22T10:04:36.803Z,31.81
2018-08-22T10:05:36.794Z,31.81
2018-08-22T10:06:36.911Z,31.80
2018-08-22T10:07:36.774Z,31.69
2018-08-22T10:08:36.762Z,32.13
2018-08-22T10:09:36.752Z,32.33
2018-08-22T10:10:36.741Z,32.10
2018-08-22T10:11:36.731Z,31.81
2018-08-22T10:12:36.721Z,31.63
2018-08-22T10:13:36.714Z,31.99
2018-08-22T10:14:36.705Z,32.22
2018-08-22T10:15:36.690Z,32.28
2018-08-22T10:16:36.681Z,31.84
2018-08-22T10:17:36.671Z,32.00
2018-08-22T10:18:36.660Z,31.96
2018-08-22T10:19:36.699Z,32.06
2018-08-22T10:20:36.638Z,31.68
2018-08-22T10:21:36.629Z,31.26
2018-08-22T10:22:36.617Z,31.70
2018-08-22T10:23:36.608Z,32.01
2018-08-22T10:24:36.597Z,32.00
2018-08-22T10:25:36.588Z,32.00
2018-08-22T10:26:36.740Z,31.95
2018-08-22T10:27:36.568Z,31.96
2018-08-22T10:28:36.558Z,31.54
2018-08-22T10:29:36.548Z,31.91
2018-08-22T10:30:36.538Z,31.78
2018-08-22T10:31:36.526Z,32.22
2018-08-22T10:32:36.583Z,32.62
2018-08-22T10:33:36.506Z,32.96
2018-08-22T10:34:36.494Z,32.14
2018-08-22T10:35:36.484Z,31.62
2018-08-22T10:36:36.474Z,32.18
2018-08-22T10:37:36.465Z,31.54
2018-08-22T10:38:36.522Z,31.99
2018-08-22T10:39:36.522Z,32.40
2018-08-22T10:40:36.437Z,32.03
2018-08-22T10:41:36.423Z,32.51
2018-08-22T10:42:36.411Z,33.04
2018-08-22T10:43:36.402Z,32.87
2018-08-22T10:44:36.480Z,32.96
2018-08-22T10:45:36.382Z,32.97
2018-08-22T10:46:36.370Z,32.88
2018-08-22T10:47:36.360Z,32.89
2018-08-22T10:48:36.351Z,32.93
2018-08-22T10:49:36.349Z,32.77
2018-08-22T10:50:36.381Z,32.10
2018-08-22T10:51:36.327Z,32.67
2018-08-22T10:52:36.311Z,32.93
2018-08-22T10:53:36.301Z,32.63
2018-08-22T10:54:36.289Z,32.38
2018-08-22T10:55:36.280Z,32.18
2018-08-22T10:56:36.270Z,32.84
2018-08-22T10:57:36.260Z,33.11
2018-08-22T10:58:36.249Z,33.50
2018-08-22T10:59:36.238Z,33.04
2018-08-22T11:00:36.229Z,32.65
2018-08-22T11:01:36.219Z,32.47
2018-08-22T11:02:36.209Z,32.74
2018-08-22T11:03:36.197Z,32.67
2018-08-22T11:04:36.188Z,33.03
2018-08-22T11:05:36.178Z,33.60
2018-08-22T11:06:36.169Z,33.68
2018-08-22T11:07:36.159Z,33.54
2018-08-22T11:08:36.147Z,34.03
2018-08-22T11:09:36.137Z,33.90
2018-08-22T11:10:36.129Z,34.06
2018-08-22T11:11:36.118Z,34.31
2018-08-22T11:12:36.109Z,33.82
2018-08-22T11:13:36.097Z,33.38
2018-08-22T11:14:36.088Z,33.51
2018-08-22T11:15:36.123Z,33.47
2018-08-22T11:16:36.069Z,33.71
2018-08-22T11:17:36.060Z,33.41
2018-08-22T11:18:36.052Z,32.85
2018-08-22T11:19:36.042Z,33.07
2018-08-22T11:20:36.030Z,32.84
2018-08-22T11:21:36.018Z,32.88
2018-08-22T11:22:36.009Z,33.31
2018-08-22T11:23:35.998Z,34.08
2018-08-22T11:24:35.989Z,34.50
2018-08-22T11:25:35.979Z,34.66
2018-08-22T11:26:35.968Z,34.02
2018-08-22T11:27:35.959Z,33.37
2018-08-22T11:28:35.949Z,33.50
2018-08-22T11:29:35.940Z,33.71
2018-08-22T11:30:35.928Z,33.56
2018-08-22T11:31:35.920Z,32.84
2018-08-22T11:32:35.909Z,32.65
2018-08-22T11:33:35.899Z,32.56
2018-08-22T11:34:35.896Z,32.84
2018-08-22T11:35:35.881Z,33.15
2018-08-22T11:36:35.867Z,33.53
2018-08-22T11:37:35.858Z,33.37
2018-08-22T11:38:35.847Z,33.35
2018-08-22T11:39:35.837Z,33.00
2018-08-22T11:40:35.826Z,32.89
2018-08-22T11:41:35.818Z,33.03
2018-08-22T11:42:35.805Z,33.35
2018-08-22T11:43:35.796Z,32.79
2018-08-22T11:44:35.785Z,32.51
2018-08-22T11:45:35.774Z,32.59
2018-08-22T11:46:35.781Z,33.01
2018-08-22T11:47:35.753Z,33.09
2018-08-22T11:48:35.742Z,32.56
2018-08-22T11:49:35.732Z,31.75
2018-08-22T11:50:35.722Z,31.95
2018-08-22T11:51:35.710Z,32.37
2018-08-22T11:52:35.699Z,32.23
2018-08-22T11:53:35.688Z,32.52
2018-08-22T11:54:35.677Z,33.04
2018-08-22T11:55:35.665Z,33.15
2018-08-22T11:56:35.655Z,33.07
2018-08-22T11:57:35.650Z,33.57
2018-08-22T11:58:35.638Z,33.41
2018-08-22T11:59:35.633Z,33.28
2018-08-22T12:00:35.614Z,33.54
2018-08-22T12:01:35.602Z,33.32
2018-08-22T12:02:35.591Z,33.49
2018-08-22T12:03:35.581Z,33.63
2018-08-22T12:04:35.569Z,33.28
2018-08-22T12:05:35.560Z,33.45
2018-08-22T12:06:35.549Z,33.86
2018-08-22T12:07:35.535Z,34.58
2018-08-22T12:08:35.526Z,34.39
2018-08-22T12:09:35.517Z,34.80
2018-08-22T12:10:35.535Z,34.22
2018-08-22T12:11:35.495Z,34.34
2018-08-22T12:12:35.485Z,33.71
2018-08-22T12:13:35.475Z,34.15
2018-08-22T12:14:35.463Z,34.03
2018-08-22T12:15:35.452Z,34.54
2018-08-22T12:16:35.443Z,34.66
2018-08-22T12:17:35.433Z,34.12
2018-08-22T12:18:35.421Z,33.84
2018-08-22T12:19:35.414Z,34.54
2018-08-22T12:20:35.401Z,34.34
2018-08-22T12:21:35.390Z,33.75
2018-08-22T12:22:35.379Z,33.79
2018-08-22T12:23:35.375Z,33.76
2018-08-22T12:24:35.360Z,34.15
2018-08-22T12:25:35.349Z,34.28
2018-08-22T12:26:35.337Z,33.84
2018-08-22T12:27:35.332Z,33.38
2018-08-22T12:28:35.317Z,32.89
2018-08-22T12:29:35.307Z,33.12
2018-08-22T12:30:35.296Z,33.42
2018-08-22T12:31:35.285Z,33.91
2018-08-22T12:32:35.275Z,34.54
2018-08-22T12:33:35.265Z,34.72
2018-08-22T12:34:35.253Z,34.80
2018-08-22T12:35:35.243Z,34.39
2018-08-22T12:36:35.233Z,34.81
2018-08-22T12:37:35.244Z,35.02
2018-08-22T12:38:35.211Z,35.21
2018-08-22T12:39:35.203Z,35.21
2018-08-22T12:40:35.192Z,35.10
2018-08-22T12:41:35.181Z,34.91
2018-08-22T12:42:35.170Z,34.82
2018-08-22T12:43:35.160Z,34.58
2018-08-22T12:44:35.188Z,34.62
2018-08-22T12:45:35.162Z,34.05
2018-08-22T12:46:35.129Z,33.95
2018-08-22T12:47:35.119Z,32.92
2018-08-22T12:48:35.113Z,32.25
2018-08-22T12:49:35.100Z,32.41
2018-08-22T12:50:35.089Z,32.45
2018-08-22T12:51:35.080Z,32.72
2018-08-22T12:52:35.069Z,32.85
2018-08-22T12:53:35.058Z,32.66
2018-08-22T12:54:35.048Z,32.87
2018-08-22T12:55:35.037Z,32.51
2018-08-22T12:56:35.028Z,32.94
2018-08-22T12:57:35.018Z,33.29
2018-08-22T12:58:35.006Z,33.31
2018-08-22T12:59:34.994Z,33.87
2018-08-22T13:00:34.985Z,33.94